createdAt,value
2017-01-25T00:00:55.685Z,0
2017-01-25T00:01:55.660Z,0
2017-01-25T00:02:55.642Z,0
2017-01-25T00:03:55.612Z,0
2017-01-25T00:04:55.598Z,0
2017-01-25T00:05:55.576Z,0
2017-01-25T00:06:55.535Z,0
2017-01-25T00:07:55.520Z,0
2017-01-25T00:08:55.504Z,0
2017-01-25T00:09:55.473Z,0
2017-01-25T00:10:55.454Z,0
2017-01-25T00:11:55.445Z,0
2017-01-25T00:12:55.406Z,0
2017-01-25T00:13:55.393Z,0
2017-01-25T00:14:55.362Z,0
2017-01-25T00:15:55.363Z,0
2017-01-25T00:16:55.334Z,0
2017-01-25T00:17:55.310Z,0
2017-01-25T00:18:55.286Z,0
2017-01-25T00:19:55.260Z,0
2017-01-25T00:20:55.242Z,0
2017-01-25T00:21:55.236Z,0
2017-01-25T00:22:55.194Z,0
2017-01-25T00:23:55.176Z,0
2017-01-25T00:24:55.148Z,0
2017-01-25T00:25:55.136Z,0
2017-01-25T00:26:55.110Z,0
2017-01-25T00:27:55.094Z,0
2017-01-25T00:28:55.072Z,0
2017-01-25T00:29:55.057Z,0
2017-01-25T00:30:55.020Z,0
2017-01-25T00:31:55.003Z,0
2017-01-25T00:32:54.990Z,0
2017-01-25T00:33:54.956Z,0
2017-01-25T00:34:54.935Z,0
2017-01-25T00:35:54.918Z,0
2017-01-25T00:36:54.886Z,0
2017-01-25T00:37:54.869Z,0
2017-01-25T00:38:54.843Z,0
2017-01-25T00:39:54.832Z,0
2017-01-25T00:40:54.802Z,0
2017-01-25T00:41:54.781Z,0
2017-01-25T00:42:54.774Z,0
2017-01-25T00:43:54.747Z,0
2017-01-25T00:44:54.718Z,0
2017-01-25T00:45:54.710Z,0
2017-01-25T00:46:54.684Z,0
2017-01-25T00:47:54.653Z,0
2017-01-25T00:48:54.626Z,0
2017-01-25T00:49:54.611Z,0
2017-01-25T00:50:54.605Z,0
2017-01-25T00:51:54.593Z,0
2017-01-25T00:52:54.551Z,0
2017-01-25T00:53:54.518Z,0
2017-01-25T00:54:54.509Z,0
2017-01-25T00:55:54.486Z,0
2017-01-25T00:56:54.464Z,0
2017-01-25T00:57:54.442Z,0
2017-01-25T00:58:54.421Z,0
2017-01-25T00:59:54.384Z,0
2017-01-25T01:00:54.369Z,0
2017-01-25T01:01:54.383Z,0
2017-01-25T01:02:54.361Z,0
2017-01-25T01:03:54.310Z,0
2017-01-25T01:04:54.296Z,0
2017-01-25T01:05:54.269Z,0
2017-01-25T01:06:54.252Z,0
2017-01-25T01:07:54.232Z,0
2017-01-25T01:08:54.234Z,0
2017-01-25T01:09:54.188Z,0
2017-01-25T01:10:54.149Z,0
2017-01-25T01:11:54.136Z,0
2017-01-25T01:12:54.122Z,0
2017-01-25T01:13:54.107Z,0
2017-01-25T01:14:54.077Z,0
2017-01-25T01:15:54.068Z,0
2017-01-25T01:16:54.055Z,0
2017-01-25T01:17:54.010Z,0
2017-01-25T01:18:53.989Z,0
2017-01-25T01:19:53.964Z,0
2017-01-25T01:20:53.953Z,0
2017-01-25T01:21:53.932Z,0
2017-01-25T01:22:53.903Z,0
2017-01-25T01:23:53.906Z,0
2017-01-25T01:24:53.894Z,0
2017-01-25T01:25:53.843Z,0
2017-01-25T01:26:53.833Z,0
2017-01-25T01:27:53.795Z,0
2017-01-25T01:28:53.777Z,0
2017-01-25T01:29:53.767Z,0
2017-01-25T01:30:53.748Z,0
2017-01-25T01:31:53.714Z,0
2017-01-25T01:32:53.720Z,0
2017-01-25T01:33:53.675Z,0
2017-01-25T01:34:53.648Z,0
2017-01-25T01:35:53.623Z,0
2017-01-25T01:36:53.615Z,0
2017-01-25T01:37:53.588Z,0
2017-01-25T01:38:53.555Z,0
2017-01-25T01:39:53.555Z,0
2017-01-25T01:40:53.526Z,0
2017-01-25T01:41:53.516Z,0
2017-01-25T01:42:53.479Z,0
2017-01-25T01:43:53.468Z,0
2017-01-25T01:44:53.433Z,0
2017-01-25T01:45:53.413Z,0
2017-01-25T01:46:53.387Z,0
2017-01-25T01:47:53.380Z,0
2017-01-25T01:48:53.360Z,0
2017-01-25T01:49:53.321Z,0
2017-01-25T01:50:53.325Z,0
2017-01-25T01:51:53.305Z,0
2017-01-25T01:52:53.266Z,0
2017-01-25T01:53:53.259Z,0
2017-01-25T01:54:53.238Z,0
2017-01-25T01:55:53.206Z,0
2017-01-25T01:56:53.180Z,0
2017-01-25T01:57:53.173Z,0
2017-01-25T01:58:53.184Z,0
2017-01-25T01:59:53.109Z,0
2017-01-25T02:00:53.106Z,0
2017-01-25T02:01:53.091Z,0
2017-01-25T02:02:53.068Z,0
2017-01-25T02:03:53.051Z,0
2017-01-25T02:04:53.019Z,0
2017-01-25T02:05:52.993Z,0
2017-01-25T02:06:52.973Z,0
2017-01-25T02:07:52.947Z,0
2017-01-25T02:08:52.935Z,0
2017-01-25T02:09:52.912Z,0
2017-01-25T02:10:52.891Z,0
2017-01-25T02:11:52.864Z,0
2017-01-25T02:12:52.832Z,0
2017-01-25T02:13:52.821Z,0
2017-01-25T02:14:52.797Z,0
2017-01-25T02:15:52.776Z,0
2017-01-25T02:16:52.753Z,0
2017-01-25T02:17:52.732Z,0
2017-01-25T02:18:52.723Z,0
2017-01-25T02:19:52.691Z,0
2017-01-25T02:20:52.678Z,0
2017-01-25T02:21:52.651Z,0
2017-01-25T02:22:52.632Z,0
2017-01-25T02:23:52.617Z,0
2017-01-25T02:24:52.608Z,0
2017-01-25T02:25:52.563Z,0
2017-01-25T02:26:52.556Z,0
2017-01-25T02:27:52.538Z,0
2017-01-25T02:28:52.496Z,0
2017-01-25T02:29:52.484Z,0
2017-01-25T02:30:52.452Z,0
2017-01-25T02:31:52.834Z,0
2017-01-25T02:32:52.410Z,0
2017-01-25T02:33:52.398Z,0
2017-01-25T02:34:52.375Z,0
2017-01-25T02:35:52.360Z,0
2017-01-25T02:36:52.332Z,0
2017-01-25T02:37:52.313Z,0
2017-01-25T02:38:52.320Z,0
2017-01-25T02:39:52.272Z,0
2017-01-25T02:40:52.254Z,0
2017-01-25T02:41:52.237Z,0
2017-01-25T02:42:52.231Z,0
2017-01-25T02:43:52.192Z,0
2017-01-25T02:44:52.169Z,0
2017-01-25T02:45:52.156Z,0
2017-01-25T02:46:52.127Z,0
2017-01-25T02:47:52.110Z,0
2017-01-25T02:48:52.087Z,0
2017-01-25T02:49:52.078Z,0
2017-01-25T02:50:52.039Z,0
2017-01-25T02:51:52.010Z,0
2017-01-25T02:52:52.004Z,0
2017-01-25T02:53:51.976Z,0
2017-01-25T02:54:51.952Z,0
2017-01-25T02:55:51.936Z,0
2017-01-25T02:56:51.910Z,0
2017-01-25T02:57:51.892Z,0
2017-01-25T02:58:51.869Z,0
2017-01-25T02:59:51.870Z,0
2017-01-25T03:00:51.832Z,0
2017-01-25T03:01:51.804Z,0
2017-01-25T03:02:51.795Z,0
2017-01-25T03:03:51.779Z,0
2017-01-25T03:04:51.777Z,0
2017-01-25T03:05:51.728Z,0
2017-01-25T03:06:51.717Z,0
2017-01-25T03:07:51.691Z,0
2017-01-25T03:08:51.661Z,0
2017-01-25T03:09:51.640Z,0
2017-01-25T03:10:51.625Z,0
2017-01-25T03:11:51.608Z,0
2017-01-25T03:12:51.582Z,0
2017-01-25T03:13:51.571Z,0
2017-01-25T03:14:51.542Z,0
2017-01-25T03:15:51.529Z,0
2017-01-25T03:16:51.502Z,0
2017-01-25T03:17:51.479Z,0
2017-01-25T03:18:51.447Z,0
2017-01-25T03:19:51.453Z,0
2017-01-25T03:20:51.413Z,0
2017-01-25T03:21:51.383Z,0
2017-01-25T03:22:51.365Z,0
2017-01-25T03:23:51.348Z,0
2017-01-25T03:24:51.331Z,0
2017-01-25T03:25:51.316Z,0
2017-01-25T03:26:51.281Z,0
2017-01-25T03:27:51.260Z,0
2017-01-25T03:28:51.250Z,0
2017-01-25T03:29:51.216Z,0
2017-01-25T03:30:51.206Z,0
2017-01-25T03:31:51.176Z,0
2017-01-25T03:32:51.163Z,0
2017-01-25T03:33:51.147Z,0
2017-01-25T03:34:51.125Z,0
2017-01-25T03:35:51.109Z,0
2017-01-25T03:36:51.085Z,0
2017-01-25T03:37:51.060Z,0
2017-01-25T03:38:51.056Z,0
2017-01-25T03:39:51.018Z,0
2017-01-25T03:40:50.989Z,0
2017-01-25T03:41:50.984Z,0
2017-01-25T03:42:50.956Z,0
2017-01-25T03:43:50.941Z,0
2017-01-25T03:44:50.917Z,0
2017-01-25T03:45:50.891Z,0
2017-01-25T03:46:50.874Z,0
2017-01-25T03:47:50.858Z,0
2017-01-25T03:48:50.825Z,0
2017-01-25T03:49:50.818Z,0
2017-01-25T03:50:50.822Z,0
2017-01-25T03:51:50.775Z,0
2017-01-25T03:52:50.755Z,0
2017-01-25T03:53:50.729Z,0
2017-01-25T03:54:50.708Z,0
2017-01-25T03:55:50.690Z,0
2017-01-25T03:56:50.674Z,0
2017-01-25T03:57:50.656Z,0
2017-01-25T03:58:50.623Z,0
2017-01-25T03:59:50.594Z,0
2017-01-25T04:00:50.588Z,0
2017-01-25T04:01:50.571Z,0
2017-01-25T04:02:50.542Z,0
2017-01-25T04:03:50.542Z,0
2017-01-25T04:04:50.516Z,0
2017-01-25T04:05:50.487Z,0
2017-01-25T04:06:50.460Z,0
2017-01-25T04:07:50.473Z,0
2017-01-25T04:08:50.427Z,0
2017-01-25T04:09:50.401Z,0
2017-01-25T04:10:50.390Z,0
2017-01-25T04:11:50.350Z,0
2017-01-25T04:12:50.330Z,0
2017-01-25T04:13:50.314Z,0
2017-01-25T04:14:50.290Z,0
2017-01-25T04:15:50.267Z,0
2017-01-25T04:16:50.244Z,0
2017-01-25T04:17:50.231Z,0
2017-01-25T04:18:50.203Z,0
2017-01-25T04:19:50.189Z,0
2017-01-25T04:20:50.169Z,0
2017-01-25T04:21:50.153Z,0
2017-01-25T04:22:50.140Z,0
2017-01-25T04:23:50.488Z,0
2017-01-25T04:24:50.089Z,0
2017-01-25T04:25:50.054Z,0
2017-01-25T04:26:50.040Z,0
2017-01-25T04:27:50.033Z,0
2017-01-25T04:28:50.009Z,0
2017-01-25T04:29:49.990Z,0
2017-01-25T04:30:49.964Z,0
2017-01-25T04:31:49.945Z,0
2017-01-25T04:32:49.911Z,0
2017-01-25T04:33:49.898Z,0
2017-01-25T04:34:49.876Z,0
2017-01-25T04:35:49.856Z,0
2017-01-25T04:36:49.830Z,0
2017-01-25T04:37:49.822Z,0
2017-01-25T04:38:49.795Z,0
2017-01-25T04:39:49.772Z,0
2017-01-25T04:40:49.752Z,0
2017-01-25T04:41:49.741Z,0
2017-01-25T04:42:49.727Z,0
2017-01-25T04:43:49.693Z,0
2017-01-25T04:44:49.671Z,0
2017-01-25T04:45:49.648Z,0
2017-01-25T04:46:49.629Z,0
2017-01-25T04:47:49.610Z,0
2017-01-25T04:48:49.590Z,0
2017-01-25T04:49:49.560Z,0
2017-01-25T04:50:49.542Z,0
2017-01-25T04:51:49.529Z,0
2017-01-25T04:52:49.501Z,0
2017-01-25T04:53:49.474Z,0
2017-01-25T04:54:49.459Z,0
2017-01-25T04:55:49.432Z,0
2017-01-25T04:56:49.424Z,0
2017-01-25T04:57:49.397Z,0
2017-01-25T04:58:49.384Z,0
2017-01-25T04:59:49.355Z,0
2017-01-25T05:00:49.339Z,0
2017-01-25T05:01:49.319Z,0
2017-01-25T05:02:49.308Z,0
2017-01-25T05:03:49.287Z,0
2017-01-25T05:04:49.258Z,0
2017-01-25T05:05:49.233Z,0
2017-01-25T05:06:49.227Z,0
2017-01-25T05:07:49.201Z,0
2017-01-25T05:08:49.170Z,0
2017-01-25T05:09:49.155Z,0
2017-01-25T05:10:49.126Z,0
2017-01-25T05:11:49.109Z,0
2017-01-25T05:12:49.112Z,0
2017-01-25T05:13:49.067Z,0
2017-01-25T05:14:49.061Z,0
2017-01-25T05:15:49.021Z,0
2017-01-25T05:16:48.999Z,0
2017-01-25T05:17:48.986Z,0
2017-01-25T05:18:48.974Z,0
2017-01-25T05:19:48.956Z,0
2017-01-25T05:20:48.926Z,0
2017-01-25T05:21:48.908Z,0
2017-01-25T05:22:48.892Z,0
2017-01-25T05:23:48.860Z,0
2017-01-25T05:24:48.846Z,0
2017-01-25T05:25:48.825Z,0
2017-01-25T05:26:48.798Z,0
2017-01-25T05:27:48.782Z,0
2017-01-25T05:28:48.775Z,0
2017-01-25T05:29:48.731Z,0
2017-01-25T05:30:48.713Z,0
2017-01-25T05:31:48.700Z,0
2017-01-25T05:32:48.671Z,0
2017-01-25T05:33:48.651Z,0
2017-01-25T05:34:48.632Z,0
2017-01-25T05:35:48.618Z,0
2017-01-25T05:36:48.601Z,0
2017-01-25T05:37:48.575Z,0
2017-01-25T05:38:48.554Z,0
2017-01-25T05:39:48.533Z,0
2017-01-25T05:40:48.522Z,0
2017-01-25T05:41:48.490Z,0
2017-01-25T05:42:48.475Z,0
2017-01-25T05:43:48.441Z,0
2017-01-25T05:44:48.417Z,0
2017-01-25T05:45:48.393Z,0
2017-01-25T05:46:48.386Z,0
2017-01-25T05:47:48.376Z,0
2017-01-25T05:48:48.360Z,0
2017-01-25T05:49:48.320Z,0
2017-01-25T05:50:48.294Z,0
2017-01-25T05:51:48.288Z,0
2017-01-25T05:52:48.249Z,0
2017-01-25T05:53:48.232Z,0
2017-01-25T05:54:48.220Z,0
2017-01-25T05:55:48.196Z,0
2017-01-25T05:56:48.180Z,0
2017-01-25T05:57:48.148Z,0
2017-01-25T05:58:48.136Z,0
2017-01-25T05:59:48.119Z,0
2017-01-25T06:00:48.101Z,0
2017-01-25T06:01:48.086Z,0
2017-01-25T06:02:48.045Z,0
2017-01-25T06:03:48.019Z,0
2017-01-25T06:04:48.001Z,0
2017-01-25T06:05:47.981Z,0
2017-01-25T06:06:47.963Z,0
2017-01-25T06:07:47.931Z,0
2017-01-25T06:08:47.910Z,0
2017-01-25T06:09:47.910Z,0
2017-01-25T06:10:47.887Z,0
2017-01-25T06:11:47.857Z,4
2017-01-25T06:12:47.847Z,0
2017-01-25T06:13:47.829Z,0
2017-01-25T06:14:47.804Z,4
2017-01-25T06:15:47.768Z,4
2017-01-25T06:16:47.766Z,4
2017-01-25T06:17:47.738Z,4
2017-01-25T06:18:47.707Z,4
2017-01-25T06:19:47.687Z,4
2017-01-25T06:20:47.691Z,8
2017-01-25T06:21:47.654Z,8
2017-01-25T06:22:47.620Z,12
2017-01-25T06:23:47.634Z,12
2017-01-25T06:24:47.592Z,12
2017-01-25T06:25:47.557Z,16
2017-01-25T06:26:47.551Z,20
2017-01-25T06:27:47.537Z,24
2017-01-25T06:28:47.502Z,28
2017-01-25T06:29:47.487Z,36
2017-01-25T06:30:47.471Z,44
2017-01-25T06:31:47.436Z,52
2017-01-25T06:32:47.426Z,60
2017-01-25T06:33:47.403Z,72
2017-01-25T06:34:47.380Z,84
2017-01-25T06:35:47.359Z,96
2017-01-25T06:36:47.340Z,112
2017-01-25T06:37:47.308Z,128
2017-01-25T06:38:47.297Z,148
2017-01-25T06:39:47.278Z,168
2017-01-25T06:40:47.258Z,196
2017-01-25T06:41:47.231Z,220
2017-01-25T06:42:47.221Z,248
2017-01-25T06:43:47.176Z,280
2017-01-25T06:44:47.178Z,316
2017-01-25T06:45:47.150Z,352
2017-01-25T06:46:47.121Z,392
2017-01-25T06:47:47.108Z,432
2017-01-25T06:48:47.092Z,480
2017-01-25T06:49:47.062Z,524
2017-01-25T06:50:47.043Z,576
2017-01-25T06:51:47.026Z,644
2017-01-25T06:52:46.998Z,728
2017-01-25T06:53:46.976Z,824
2017-01-25T06:54:46.969Z,904
2017-01-25T06:55:46.942Z,992
2017-01-25T06:56:46.912Z,1076
2017-01-25T06:57:46.901Z,1172
2017-01-25T06:58:46.882Z,1268
2017-01-25T06:59:46.847Z,1364
2017-01-25T07:00:46.830Z,1460
2017-01-25T07:01:47.195Z,1572
2017-01-25T07:02:46.800Z,1676
2017-01-25T07:03:46.765Z,1776
2017-01-25T07:04:46.741Z,1888
2017-01-25T07:05:46.749Z,1992
2017-01-25T07:06:46.720Z,2104
2017-01-25T07:07:46.691Z,2212
2017-01-25T07:08:46.674Z,2320
2017-01-25T07:09:46.660Z,2428
2017-01-25T07:10:46.632Z,2536
2017-01-25T07:11:46.607Z,2644
2017-01-25T07:12:46.593Z,2792
2017-01-25T07:13:46.774Z,2900
2017-01-25T07:14:46.543Z,3008
2017-01-25T07:15:46.528Z,3132
2017-01-25T07:16:46.516Z,3240
2017-01-25T07:17:46.488Z,3352
2017-01-25T07:18:46.477Z,3464
2017-01-25T07:19:46.438Z,3580
2017-01-25T07:20:46.436Z,3692
2017-01-25T07:21:46.406Z,3804
2017-01-25T07:22:46.395Z,3908
2017-01-25T07:23:46.377Z,4020
2017-01-25T07:24:46.365Z,4132
2017-01-25T07:25:46.337Z,4240
2017-01-25T07:26:46.315Z,4356
2017-01-25T07:27:46.288Z,4468
2017-01-25T07:28:46.270Z,4576
2017-01-25T07:29:46.259Z,4676
2017-01-25T07:30:46.250Z,4792
2017-01-25T07:31:46.211Z,4920
2017-01-25T07:32:46.198Z,5052
2017-01-25T07:33:46.170Z,5216
2017-01-25T07:34:46.159Z,5364
2017-01-25T07:35:46.147Z,5492
2017-01-25T07:36:46.106Z,5984
2017-01-25T07:37:46.101Z,6212
2017-01-25T07:38:46.081Z,6376
2017-01-25T07:39:46.062Z,6420
2017-01-25T07:40:46.032Z,6628
2017-01-25T07:41:46.046Z,6632
2017-01-25T07:42:46.002Z,6508
2017-01-25T07:43:46.194Z,6548
2017-01-25T07:44:45.957Z,6796
2017-01-25T07:45:45.940Z,7080
2017-01-25T07:46:45.908Z,7416
2017-01-25T07:47:45.924Z,7372
2017-01-25T07:48:45.883Z,7440
2017-01-25T07:49:45.864Z,7440
2017-01-25T07:50:45.853Z,7800
2017-01-25T07:51:45.828Z,8012
2017-01-25T07:52:45.801Z,8224
2017-01-25T07:53:46.801Z,8388
2017-01-25T07:54:45.770Z,8384
2017-01-25T07:55:45.756Z,8252
2017-01-25T07:56:45.736Z,8444
2017-01-25T07:57:45.704Z,8624
2017-01-25T07:58:45.688Z,9036
2017-01-25T07:59:45.671Z,9240
2017-01-25T08:00:45.659Z,8952
2017-01-25T08:01:45.629Z,8996
2017-01-25T08:02:45.620Z,9100
2017-01-25T08:03:45.627Z,8960
2017-01-25T08:04:45.591Z,9792
2017-01-25T08:05:45.562Z,9936
2017-01-25T08:06:45.549Z,9848
2017-01-25T08:07:45.535Z,10216
2017-01-25T08:08:45.511Z,10604
2017-01-25T08:09:45.492Z,11440
2017-01-25T08:10:45.695Z,11676
2017-01-25T08:11:45.455Z,12264
2017-01-25T08:12:45.636Z,12380
2017-01-25T08:13:45.425Z,12372
2017-01-25T08:14:45.405Z,13020
2017-01-25T08:15:45.388Z,13696
2017-01-25T08:16:45.371Z,15008
2017-01-25T08:17:45.341Z,15488
2017-01-25T08:18:45.326Z,14624
2017-01-25T08:19:45.310Z,14240
2017-01-25T08:20:45.302Z,13608
2017-01-25T08:21:45.292Z,13588
2017-01-25T08:22:45.266Z,14560
2017-01-25T08:23:45.247Z,15264
2017-01-25T08:24:45.209Z,15424
2017-01-25T08:25:45.200Z,15488
2017-01-25T08:26:45.189Z,15648
2017-01-25T08:27:45.168Z,16224
2017-01-25T08:28:45.147Z,17280
2017-01-25T08:29:45.132Z,18112
2017-01-25T08:30:45.103Z,17088
2017-01-25T08:31:45.100Z,15712
2017-01-25T08:32:45.080Z,14880
2017-01-25T08:33:45.426Z,16448
2017-01-25T08:34:45.038Z,18688
2017-01-25T08:35:45.025Z,20672
2017-01-25T08:36:45.000Z,20512
2017-01-25T08:37:44.973Z,19648
2017-01-25T08:38:44.974Z,20128
2017-01-25T08:39:44.941Z,19808
2017-01-25T08:40:44.928Z,20672
2017-01-25T08:41:44.904Z,22176
2017-01-25T08:42:44.895Z,22560
2017-01-25T08:43:44.872Z,21120
2017-01-25T08:44:44.863Z,21248
2017-01-25T08:45:44.834Z,22432
2017-01-25T08:46:44.822Z,23648
2017-01-25T08:47:44.795Z,23232
2017-01-25T08:48:44.788Z,23296
2017-01-25T08:49:44.783Z,25760
2017-01-25T08:50:44.753Z,26304
2017-01-25T08:51:44.759Z,27104
2017-01-25T08:52:44.707Z,28960
2017-01-25T08:53:44.710Z,28288
2017-01-25T08:54:44.678Z,25728
2017-01-25T08:55:44.653Z,24768
2017-01-25T08:56:44.645Z,24544
2017-01-25T08:57:45.030Z,27040
2017-01-25T08:58:44.619Z,27904
2017-01-25T08:59:44.603Z,25632
2017-01-25T09:00:44.599Z,23200
2017-01-25T09:01:44.568Z,20576
2017-01-25T09:02:44.535Z,19360
2017-01-25T09:03:44.519Z,18880
2017-01-25T09:04:44.506Z,18880
2017-01-25T09:05:44.480Z,20064
2017-01-25T09:06:44.473Z,23712
2017-01-25T09:07:44.447Z,29792
2017-01-25T09:08:44.445Z,32000
2017-01-25T09:09:44.434Z,29984
2017-01-25T09:10:44.414Z,28928
2017-01-25T09:11:44.388Z,28864
2017-01-25T09:12:44.376Z,29056
2017-01-25T09:13:44.355Z,30912
2017-01-25T09:14:44.340Z,32512
2017-01-25T09:15:44.691Z,31904
2017-01-25T09:16:44.335Z,32864
2017-01-25T09:17:44.285Z,31936
2017-01-25T09:18:44.263Z,31936
2017-01-25T09:19:44.253Z,31168
2017-01-25T09:20:44.348Z,32672
2017-01-25T09:21:44.224Z,33536
2017-01-25T09:22:44.196Z,34144
2017-01-25T09:23:44.179Z,37120
2017-01-25T09:24:44.177Z,38560
2017-01-25T09:25:44.157Z,39360
2017-01-25T09:26:44.135Z,42080
2017-01-25T09:27:44.122Z,44608
2017-01-25T09:28:44.095Z,43072
2017-01-25T09:29:44.081Z,39584
2017-01-25T09:30:44.072Z,37216
2017-01-25T09:31:44.051Z,32992
2017-01-25T09:32:44.028Z,27232
2017-01-25T09:33:44.017Z,26432
2017-01-25T09:34:43.998Z,27392
2017-01-25T09:35:43.969Z,29856
2017-01-25T09:36:43.974Z,33152
2017-01-25T09:37:43.943Z,36000
2017-01-25T09:38:43.925Z,39264
2017-01-25T09:39:44.297Z,39648
2017-01-25T09:40:43.895Z,38528
2017-01-25T09:41:43.877Z,37376
2017-01-25T09:42:43.879Z,37440
2017-01-25T09:43:43.849Z,39680
2017-01-25T09:44:43.812Z,38528
2017-01-25T09:45:43.809Z,39200
2017-01-25T09:46:43.788Z,40192
2017-01-25T09:47:43.767Z,40448
2017-01-25T09:48:43.766Z,37600
2017-01-25T09:49:43.735Z,33632
2017-01-25T09:50:43.723Z,32992
2017-01-25T09:51:43.706Z,37216
2017-01-25T09:52:43.674Z,41312
2017-01-25T09:53:43.666Z,43584
2017-01-25T09:54:43.648Z,41760
2017-01-25T09:55:43.634Z,41024
2017-01-25T09:56:43.612Z,40128
2017-01-25T09:57:43.619Z,37184
2017-01-25T09:58:43.585Z,38208
2017-01-25T09:59:43.575Z,37024
2017-01-25T10:00:43.548Z,37696
2017-01-25T10:01:43.535Z,39616
2017-01-25T10:02:43.508Z,44288
2017-01-25T10:03:43.508Z,45216
2017-01-25T10:04:43.473Z,46976
2017-01-25T10:05:43.465Z,48512
2017-01-25T10:06:43.449Z,47872
2017-01-25T10:07:43.427Z,47040
2017-01-25T10:08:43.399Z,42432
2017-01-25T10:09:43.381Z,41024
2017-01-25T10:10:43.369Z,40576
2017-01-25T10:11:43.346Z,40640
2017-01-25T10:12:43.340Z,41184
2017-01-25T10:13:43.323Z,42528
2017-01-25T10:14:43.293Z,46112
2017-01-25T10:15:43.279Z,47840
2017-01-25T10:16:43.269Z,44800
2017-01-25T10:17:43.276Z,42336
2017-01-25T10:18:43.222Z,39744
2017-01-25T10:19:43.221Z,38976
2017-01-25T10:20:43.198Z,37792
2017-01-25T10:21:43.180Z,35616
2017-01-25T10:22:43.157Z,33344
2017-01-25T10:23:43.151Z,30816
2017-01-25T10:24:43.129Z,31200
2017-01-25T10:25:43.106Z,32000
2017-01-25T10:26:43.122Z,32864
2017-01-25T10:27:43.079Z,34336
2017-01-25T10:28:43.071Z,34432
2017-01-25T10:29:43.045Z,33600
2017-01-25T10:30:43.030Z,34528
2017-01-25T10:31:43.000Z,35104
2017-01-25T10:32:42.997Z,36352
2017-01-25T10:33:42.970Z,37152
2017-01-25T10:34:42.951Z,40000
2017-01-25T10:35:42.942Z,43264
2017-01-25T10:36:42.916Z,44032
2017-01-25T10:37:42.911Z,44128
2017-01-25T10:38:42.896Z,42016
2017-01-25T10:39:42.881Z,39776
2017-01-25T10:40:42.860Z,42656
2017-01-25T10:41:42.847Z,47200
2017-01-25T10:42:42.856Z,45632
2017-01-25T10:43:42.816Z,45056
2017-01-25T10:44:42.798Z,45952
2017-01-25T10:45:42.779Z,44832
2017-01-25T10:46:42.772Z,40928
2017-01-25T10:47:42.749Z,39392
2017-01-25T10:48:42.734Z,39360
2017-01-25T10:49:42.710Z,36224
2017-01-25T10:50:42.694Z,36576
2017-01-25T10:51:42.681Z,38976
2017-01-25T10:52:42.664Z,40416
2017-01-25T10:53:42.644Z,38720
2017-01-25T10:54:42.633Z,38208
2017-01-25T10:55:42.623Z,38624
2017-01-25T10:56:42.602Z,37440
2017-01-25T10:57:42.587Z,38144
2017-01-25T10:58:42.569Z,41472
2017-01-25T10:59:42.552Z,39424
2017-01-25T11:00:42.532Z,39872
2017-01-25T11:01:42.534Z,43424
2017-01-25T11:02:42.512Z,42688
2017-01-25T11:03:42.486Z,40800
2017-01-25T11:04:42.471Z,42144
2017-01-25T11:05:42.471Z,41984
2017-01-25T11:06:42.450Z,41280
2017-01-25T11:07:42.446Z,38752
2017-01-25T11:08:42.412Z,38880
2017-01-25T11:09:42.401Z,39904
2017-01-25T11:10:42.394Z,43392
2017-01-25T11:11:42.379Z,44448
2017-01-25T11:12:42.361Z,42464
2017-01-25T11:13:42.344Z,41632
2017-01-25T11:14:42.316Z,37952
2017-01-25T11:15:42.318Z,41792
2017-01-25T11:16:42.301Z,46464
2017-01-25T11:17:42.279Z,46048
2017-01-25T11:18:42.276Z,44672
2017-01-25T11:19:42.256Z,45056
2017-01-25T11:20:42.252Z,45280
2017-01-25T11:21:42.224Z,44896
2017-01-25T11:22:42.214Z,43008
2017-01-25T11:23:42.190Z,41504
2017-01-25T11:24:42.185Z,41632
2017-01-25T11:25:42.161Z,42464
2017-01-25T11:26:42.151Z,41568
2017-01-25T11:27:42.146Z,39296
2017-01-25T11:28:42.123Z,39616
2017-01-25T11:29:42.095Z,43264
2017-01-25T11:30:42.078Z,44736
2017-01-25T11:31:42.066Z,44960
2017-01-25T11:32:42.055Z,39488
2017-01-25T11:33:42.037Z,25632
2017-01-25T11:34:42.031Z,18592
2017-01-25T11:35:42.021Z,18048
2017-01-25T11:36:41.999Z,23360
2017-01-25T11:37:41.972Z,42656
2017-01-25T11:38:42.350Z,56224
2017-01-25T11:39:41.947Z,50528
2017-01-25T11:40:41.934Z,46368
2017-01-25T11:41:41.915Z,46272
2017-01-25T11:42:41.896Z,42592
2017-01-25T11:43:41.883Z,37824
2017-01-25T11:44:41.862Z,40352
2017-01-25T11:45:41.849Z,43296
2017-01-25T11:46:41.843Z,40096
2017-01-25T11:47:41.829Z,37056
2017-01-25T11:48:41.787Z,38912
2017-01-25T11:49:41.786Z,44832
2017-01-25T11:50:41.758Z,49984
2017-01-25T11:51:41.753Z,52832
2017-01-25T11:52:41.740Z,52832
2017-01-25T11:53:41.714Z,51584
2017-01-25T11:54:41.697Z,51264
2017-01-25T11:55:41.674Z,52096
2017-01-25T11:56:41.682Z,50560
2017-01-25T11:57:41.648Z,47968
2017-01-25T11:58:41.621Z,48416
2017-01-25T11:59:41.613Z,53312
2017-01-25T12:00:41.588Z,55840
2017-01-25T12:01:41.568Z,50944
2017-01-25T12:02:41.581Z,46816
2017-01-25T12:03:41.538Z,46912
2017-01-25T12:04:41.521Z,43872
2017-01-25T12:05:41.517Z,39712
2017-01-25T12:06:41.483Z,36896
2017-01-25T12:07:41.481Z,35744
2017-01-25T12:08:41.463Z,34432
2017-01-25T12:09:42.358Z,33120
2017-01-25T12:10:41.421Z,33184
2017-01-25T12:11:41.412Z,33696
2017-01-25T12:12:41.391Z,34848
2017-01-25T12:13:41.369Z,34816
2017-01-25T12:14:41.365Z,33728
2017-01-25T12:15:41.412Z,32928
2017-01-25T12:16:41.338Z,32672
2017-01-25T12:17:41.317Z,32448
2017-01-25T12:18:41.306Z,32064
2017-01-25T12:19:41.277Z,32064
2017-01-25T12:20:41.267Z,32064
2017-01-25T12:21:41.252Z,32544
2017-01-25T12:22:41.233Z,35968
2017-01-25T12:23:41.232Z,37856
2017-01-25T12:24:41.211Z,39520
2017-01-25T12:25:41.576Z,43936
2017-01-25T12:26:41.184Z,46848
2017-01-25T12:27:41.167Z,46240
2017-01-25T12:28:41.140Z,45280
2017-01-25T12:29:41.123Z,45344
2017-01-25T12:30:41.103Z,43264
2017-01-25T12:31:41.087Z,40736
2017-01-25T12:32:41.093Z,40288
2017-01-25T12:33:41.051Z,41664
2017-01-25T12:34:41.037Z,43168
2017-01-25T12:35:41.022Z,42560
2017-01-25T12:36:40.998Z,40832
2017-01-25T12:37:40.995Z,38176
2017-01-25T12:38:40.990Z,36352
2017-01-25T12:39:40.953Z,35328
2017-01-25T12:40:40.942Z,34400
2017-01-25T12:41:40.923Z,33792
2017-01-25T12:42:40.916Z,33472
2017-01-25T12:43:40.906Z,32576
2017-01-25T12:44:40.887Z,31584
2017-01-25T12:45:40.848Z,29952
2017-01-25T12:46:40.851Z,29728
2017-01-25T12:47:40.828Z,31936
2017-01-25T12:48:40.819Z,33056
2017-01-25T12:49:40.805Z,33728
2017-01-25T12:50:40.773Z,35072
2017-01-25T12:51:40.768Z,39680
2017-01-25T12:52:40.778Z,46112
2017-01-25T12:53:40.737Z,46752
2017-01-25T12:54:40.718Z,42784
2017-01-25T12:55:40.695Z,37440
2017-01-25T12:56:40.685Z,31488
2017-01-25T12:57:40.661Z,29824
2017-01-25T12:58:40.654Z,35840
2017-01-25T12:59:40.636Z,42976
2017-01-25T13:00:40.617Z,44256
2017-01-25T13:01:40.596Z,40928
2017-01-25T13:02:40.582Z,37856
2017-01-25T13:03:40.564Z,36704
2017-01-25T13:04:40.544Z,34752
2017-01-25T13:05:40.542Z,31776
2017-01-25T13:06:40.527Z,30688
2017-01-25T13:07:40.531Z,30880
2017-01-25T13:08:40.493Z,33280
2017-01-25T13:09:40.479Z,38976
2017-01-25T13:10:40.486Z,44608
2017-01-25T13:11:40.447Z,43072
2017-01-25T13:12:40.415Z,32704
2017-01-25T13:13:40.391Z,21344
2017-01-25T13:14:40.393Z,18112
2017-01-25T13:15:40.376Z,17632
2017-01-25T13:16:40.358Z,17696
2017-01-25T13:17:40.337Z,21024
2017-01-25T13:18:40.318Z,29440
2017-01-25T13:19:40.318Z,42208
2017-01-25T13:20:40.290Z,52928
2017-01-25T13:21:40.271Z,53760
2017-01-25T13:22:40.255Z,48736
2017-01-25T13:23:40.252Z,41344
2017-01-25T13:24:40.215Z,34368
2017-01-25T13:25:40.207Z,30752
2017-01-25T13:26:40.202Z,28416
2017-01-25T13:27:40.181Z,29088
2017-01-25T13:28:40.157Z,30560
2017-01-25T13:29:40.148Z,36992
2017-01-25T13:30:40.131Z,41184
2017-01-25T13:31:40.112Z,43520
2017-01-25T13:32:40.104Z,36736
2017-01-25T13:33:40.080Z,28992
2017-01-25T13:34:40.086Z,30048
2017-01-25T13:35:40.059Z,32256
2017-01-25T13:36:40.035Z,34080
2017-01-25T13:37:40.010Z,31648
2017-01-25T13:38:40.007Z,29024
2017-01-25T13:39:39.988Z,29184
2017-01-25T13:40:39.971Z,30016
2017-01-25T13:41:39.953Z,30240
2017-01-25T13:42:39.941Z,31072
2017-01-25T13:43:39.920Z,30400
2017-01-25T13:44:39.901Z,31552
2017-01-25T13:45:39.890Z,36672
2017-01-25T13:46:39.876Z,38656